Time;durP1;ratioP1;P1;durP2;ratioP2;P2;SDS_P1;SDS_P2;PMS_P1;PMS_P2;Temp;Humidity;BMP_temperature;BMP_pressure;BME280_temperature;BME280_humidity;BME280_pressure;Samples;Min_cycle;Max_cycle;Signal;HPM_P1;HPM_P2
2021/06/24 00:00:47;;;;;;;137.88;127.05;;;;;;;21.55;100.00;101196.72;5043322;28;20023;-75
2021/06/24 00:03:14;;;;;;;154.18;142.55;;;;;;;21.54;100.00;101204.00;5046911;28;20386;-76
2021/06/24 00:05:41;;;;;;;154.07;142.07;;;;;;;21.50;100.00;101198.31;5050078;28;20045;-76
2021/06/24 00:08:10;;;;;;;151.23;139.95;;;;;;;21.56;100.00;101198.34;5044795;28;20045;-76
2021/06/24 00:10:41;;;;;;;152.65;141.30;;;;;;;21.58;100.00;101210.50;5048818;28;20401;-80
2021/06/24 00:13:09;;;;;;;142.33;131.40;;;;;;;21.53;100.00;101198.88;5048736;28;20487;-77
2021/06/24 00:15:37;;;;;;;130.50;120.55;;;;;;;21.65;100.00;101196.72;5034787;28;20310;-76
2021/06/24 00:18:05;;;;;;;147.27;137.15;;;;;;;21.75;100.00;101171.59;5042348;28;20047;-76
2021/06/24 00:20:32;;;;;;;132.35;122.95;;;;;;;21.78;100.00;101171.84;5038898;28;20135;-76
2021/06/24 00:22:59;;;;;;;128.35;118.00;;;;;;;21.55;100.00;101164.28;5038985;28;20053;-77
2021/06/24 00:25:26;;;;;;;135.05;123.85;;;;;;;21.55;100.00;101167.81;5047647;28;20056;-77
2021/06/24 00:27:54;;;;;;;144.43;132.63;;;;;;;21.55;100.00;101178.59;5044674;28;20045;-76
2021/06/24 00:30:23;;;;;;;137.60;126.38;;;;;;;21.59;100.00;101187.78;5049488;28;20418;-77
2021/06/24 00:32:50;;;;;;;154.25;141.98;;;;;;;21.15;100.00;101184.69;5034746;28;20037;-76
2021/06/24 00:35:17;;;;;;;163.05;149.75;;;;;;;21.31;100.00;101185.56;5050728;28;20053;-76
2021/06/24 00:37:45;;;;;;;148.93;136.65;;;;;;;21.23;100.00;101178.78;5042882;28;20049;-77
2021/06/24 00:40:13;;;;;;;153.43;140.75;;;;;;;21.16;100.00;101172.81;5048471;28;20056;-77
2021/06/24 00:42:42;;;;;;;152.48;140.20;;;;;;;21.20;100.00;101153.09;5049196;28;20409;-76
2021/06/24 00:45:13;;;;;;;148.93;136.90;;;;;;;21.02;100.00;101158.97;5046659;28;20053;-76
2021/06/24 00:47:41;;;;;;;172.53;158.07;;;;;;;20.76;100.00;101160.78;5050971;28;20059;-76
2021/06/24 00:50:10;;;;;;;159.30;146.18;;;;;;;20.94;100.00;101168.44;5035539;28;20291;-76
2021/06/24 00:52:38;;;;;;;153.55;139.95;;;;;;;21.09;100.00;101156.88;5047611;28;20049;-77
2021/06/24 00:55:06;;;;;;;160.68;148.02;;;;;;;21.14;100.00;101156.88;5048147;28;20055;-77
2021/06/24 00:57:33;;;;;;;147.25;135.23;;;;;;;21.10;100.00;101163.88;5040527;28;20048;-76
2021/06/24 01:00:00;;;;;;;153.10;140.75;;;;;;;21.07;100.00;101174.41;5045196;28;20057;-76
2021/06/24 01:02:30;;;;;;;148.43;136.50;;;;;;;21.11;100.00;101170.09;5044130;28;20041;-77
2021/06/24 01:04:57;;;;;;;163.40;150.77;;;;;;;20.99;100.00;101167.63;5047571;28;20049;-76
2021/06/24 01:07:25;;;;;;;153.13;141.13;;;;;;;21.09;100.00;101175.78;5042006;28;20045;-77
2021/06/24 01:09:53;;;;;;;148.68;136.75;;;;;;;21.12;100.00;101166.31;5037001;28;20042;-77
2021/06/24 01:12:21;;;;;;;144.48;132.68;;;;;;;21.18;100.00;101163.38;5038241;28;20050;-77
2021/06/24 01:14:50;;;;;;;135.68;125.10;;;;;;;21.21;100.00;101167.41;5041080;28;20132;-77
2021/06/24 01:17:24;;;;;;;134.85;124.47;;;;;;;21.17;100.00;101169.84;5052233;28;20041;-78
2021/06/24 01:19:56;;;;;;;139.95;129.30;;;;;;;21.19;100.00;101167.69;5047224;28;20053;-77
2021/06/24 01:22:23;;;;;;;137.40;126.82;;;;;;;21.12;100.00;101166.31;5042617;28;20440;-75
2021/06/24 01:24:51;;;;;;;134.18;123.72;;;;;;;21.10;100.00;101161.19;5044403;28;20051;-76
2021/06/24 01:27:18;;;;;;;127.50;117.78;;;;;;;21.02;100.00;101159.78;5041954;28;20405;-77
2021/06/24 01:29:45;;;;;;;133.25;122.80;;;;;;;21.02;100.00;101154.41;5045896;28;20049;-76
2021/06/24 01:32:12;;;;;;;128.40;118.57;;;;;;;20.87;100.00;101140.03;5051798;28;20500;-77
2021/06/24 01:34:42;;;;;;;134.52;124.13;;;;;;;20.73;100.00;101137.84;5044842;28;20092;-76
2021/06/24 01:37:09;;;;;;;133.32;123.13;;;;;;;20.67;100.00;101138.88;5042045;28;20055;-77
2021/06/24 01:39:36;;;;;;;140.70;129.43;;;;;;;20.51;100.00;101127.16;5044031;28;20412;-76
2021/06/24 01:42:05;;;;;;;135.20;124.88;;;;;;;20.55;100.00;101130.19;5045108;28;20057;-76
2021/06/24 01:44:34;;;;;;;137.65;127.05;;;;;;;20.60;100.00;101130.19;5043198;28;20053;-77
2021/06/24 01:47:04;;;;;;;130.02;120.22;;;;;;;20.66;100.00;101139.94;5043067;28;20057;-77
2021/06/24 01:49:31;;;;;;;130.23;119.85;;;;;;;20.64;100.00;101142.13;5048782;28;20056;-76
2021/06/24 01:51:58;;;;;;;137.65;127.45;;;;;;;20.53;100.00;101151.22;5050972;28;20045;-76
2021/06/24 01:54:25;;;;;;;141.48;130.05;;;;;;;20.44;100.00;101142.78;5047651;28;20056;-76
2021/06/24 01:56:53;;;;;;;139.98;128.57;;;;;;;20.14;100.00;101151.50;5042085;28;20056;-76
2021/06/24 01:59:21;;;;;;;147.70;135.98;;;;;;;20.07;100.00;101153.59;5045982;28;20507;-75
2021/06/24 02:01:48;;;;;;;143.07;131.77;;;;;;;20.03;100.00;101157.88;5134305;23;20430;-76
2021/06/24 02:04:15;;;;;;;148.50;136.48;;;;;;;19.97;100.00;101164.28;5044377;28;20063;-76
2021/06/24 02:06:43;;;;;;;147.60;135.20;;;;;;;20.00;100.00;101161.91;5047587;28;20049;-76
2021/06/24 02:09:10;;;;;;;140.15;128.85;;;;;;;20.07;100.00;101173.28;5037092;28;20457;-76
2021/06/24 02:11:37;;;;;;;141.23;128.93;;;;;;;20.12;100.00;101176.03;5047484;28;20049;-75
2021/06/24 02:14:04;;;;;;;148.40;136.30;;;;;;;19.98;100.00;101171.31;5046969;28;20063;-76
2021/06/24 02:16:32;;;;;;;153.18;141.05;;;;;;;20.00;100.00;101180.78;5041616;28;20053;-76
2021/06/24 02:18:59;;;;;;;141.00;129.07;;;;;;;19.90;100.00;101184.19;5047629;28;20477;-77
2021/06/24 02:21:26;;;;;;;147.45;135.27;;;;;;;20.01;100.00;101173.50;5044161;28;20053;-76
2021/06/24 02:23:53;;;;;;;140.40;129.20;;;;;;;20.03;100.00;101180.28;5046290;28;20107;-81
2021/06/24 02:26:20;;;;;;;142.90;131.30;;;;;;;20.02;100.00;101175.94;5036812;28;20053;-77
2021/06/24 02:28:47;;;;;;;142.73;131.20;;;;;;;19.99;100.00;101167.56;5046779;28;20056;-76
2021/06/24 02:31:14;;;;;;;147.73;135.13;;;;;;;19.87;100.00;101171.22;5049334;28;20059;-77
2021/06/24 02:33:43;;;;;;;153.50;140.70;;;;;;;19.97;100.00;101181.31;5044889;28;20041;-77
2021/06/24 02:36:10;;;;;;;141.18;129.45;;;;;;;19.92;100.00;101191.22;5033710;28;20057;-77
2021/06/24 02:38:37;;;;;;;148.57;135.93;;;;;;;19.93;100.00;101187.44;5035399;28;20055;-76
2021/06/24 02:41:04;;;;;;;146.77;134.68;;;;;;;19.90;100.00;101183.38;5045879;28;20049;-76
2021/06/24 02:43:31;;;;;;;146.80;134.95;;;;;;;19.65;100.00;101179.38;5045628;28;20060;-76
2021/06/24 02:45:58;;;;;;;153.82;141.18;;;;;;;19.73;100.00;101177.28;5046214;28;20059;-79
2021/06/24 02:48:25;;;;;;;147.23;134.73;;;;;;;19.70;100.00;101181.34;5049907;28;20059;-75
2021/06/24 02:50:53;;;;;;;147.80;135.35;;;;;;;19.82;100.00;101167.69;5047849;28;20045;-77
2021/06/24 02:53:20;;;;;;;150.05;137.75;;;;;;;19.76;100.00;101187.56;5037469;28;20469;-77
2021/06/24 02:55:47;;;;;;;139.45;128.75;;;;;;;19.78;100.00;101177.34;5040132;28;20064;-77
2021/06/24 02:58:17;;;;;;;138.05;126.95;;;;;;;19.76;100.00;101187.56;5045822;28;20393;-78
2021/06/24 03:00:44;;;;;;;140.65;129.38;;;;;;;19.89;100.00;101179.06;5047501;28;20045;-78
2021/06/24 03:03:11;;;;;;;153.27;141.90;;;;;;;19.76;100.00;101184.88;5046302;28;20050;-76
2021/06/24 03:05:38;;;;;;;155.48;142.98;;;;;;;19.72;100.00;101183.75;5034785;28;20049;-77
2021/06/24 03:08:06;;;;;;;157.98;146.38;;;;;;;19.85;100.00;101196.84;5047850;28;20064;-77
2021/06/24 03:10:33;;;;;;;142.80;131.80;;;;;;;19.91;100.00;101195.81;5047349;28;20045;-77
2021/06/24 03:13:00;;;;;;;146.00;134.75;;;;;;;19.91;100.00;101198.50;5047639;28;20045;-78
2021/06/24 03:15:31;;;;;;;138.93;128.23;;;;;;;19.81;100.00;101196.50;5047572;28;20053;-77
2021/06/24 03:17:58;;;;;;;143.82;131.75;;;;;;;19.93;100.00;101184.75;5047523;28;20060;-77
2021/06/24 03:20:28;;;;;;;142.23;129.77;;;;;;;19.85;100.00;101194.13;5044628;28;20045;-76
2021/06/24 03:22:57;;;;;;;149.60;137.02;;;;;;;19.66;100.00;101194.47;5051344;28;20476;-76
2021/06/24 03:25:26;;;;;;;151.82;138.45;;;;;;;19.80;100.00;101191.38;5045377;28;20057;-76
2021/06/24 03:27:53;;;;;;;164.77;150.98;;;;;;;19.80;100.00;101189.50;5044347;28;20045;-76
2021/06/24 03:30:21;;;;;;;158.20;145.30;;;;;;;19.94;100.00;101187.22;5045384;28;20056;-77
2021/06/24 03:32:49;;;;;;;154.20;141.10;;;;;;;20.01;100.00;101185.09;5045024;28;21046;-80
2021/06/24 03:35:16;;;;;;;151.35;139.05;;;;;;;20.04;100.00;101176.50;5044934;28;20400;-76
2021/06/24 03:37:43;;;;;;;147.93;136.48;;;;;;;20.06;100.00;101177.06;5045694;28;20052;-76
2021/06/24 03:40:16;;;;;;;150.30;138.85;;;;;;;20.13;100.00;101184.94;5044554;28;20044;-77
2021/06/24 03:42:45;;;;;;;146.00;134.50;;;;;;;20.09;100.00;101192.72;5045224;28;20052;-77
2021/06/24 03:45:14;;;;;;;152.82;141.52;;;;;;;20.15;100.00;101188.16;5045469;28;20048;-75
2021/06/24 03:47:41;;;;;;;153.00;141.00;;;;;;;20.21;100.00;101195.25;5047740;28;20049;-76
2021/06/24 03:50:09;;;;;;;154.88;142.77;;;;;;;20.19;100.00;101197.38;5047677;28;20049;-77
2021/06/24 03:52:36;;;;;;;144.50;133.15;;;;;;;20.27;100.00;101201.47;5043285;28;20056;-77
2021/06/24 03:55:05;;;;;;;150.82;139.35;;;;;;;20.43;100.00;101194.31;5047372;28;20531;-76
2021/06/24 03:57:32;;;;;;;143.90;132.98;;;;;;;20.46;100.00;101196.47;5045137;28;20041;-77
2021/06/24 04:00:00;;;;;;;160.10;148.40;;;;;;;20.70;100.00;101194.22;5047210;28;20044;-77
2021/06/24 04:02:27;;;;;;;151.02;139.77;;;;;;;20.84;100.00;101189.16;5044964;28;20492;-77
2021/06/24 04:04:54;;;;;;;148.32;137.25;;;;;;;20.98;100.00;101195.69;5048995;28;20052;-77
2021/06/24 04:07:21;;;;;;;137.13;127.10;;;;;;;20.93;100.00;101207.28;5050176;28;20366;-77
2021/06/24 04:09:48;;;;;;;133.63;123.50;;;;;;;20.96;100.00;101216.75;5044894;28;20412;-78
2021/06/24 04:12:14;;;;;;;134.95;124.85;;;;;;;20.97;100.00;101218.38;5041531;28;20063;-77
2021/06/24 04:14:41;;;;;;;141.77;130.77;;;;;;;21.17;100.00;101223.84;5042883;28;20056;-77
2021/06/24 04:17:09;;;;;;;143.27;132.30;;;;;;;21.28;100.00;101212.00;5049714;28;20059;-76
2021/06/24 04:19:36;;;;;;;135.65;125.20;;;;;;;21.33;100.00;101211.22;5045872;28;20045;-77
2021/06/24 04:22:04;;;;;;;139.45;128.88;;;;;;;21.44;100.00;101203.97;5044587;28;20053;-76
2021/06/24 04:24:30;;;;;;;150.55;139.55;;;;;;;21.59;100.00;101193.19;5042614;28;20082;-76
2021/06/24 04:26:57;;;;;;;120.35;111.60;;;;;;;21.59;100.00;101192.41;5045443;28;20048;-78
2021/06/24 04:29:24;;;;;;;142.93;132.75;;;;;;;21.76;100.00;101187.56;5042850;28;20053;-76
2021/06/24 04:31:51;;;;;;;119.20;110.07;;;;;;;21.87;100.00;101191.88;5048977;28;20064;-78
2021/06/24 04:34:19;;;;;;;130.07;120.18;;;;;;;21.91;100.00;101195.69;5039094;28;20045;-77
2021/06/24 04:36:46;;;;;;;122.18;113.05;;;;;;;21.93;100.00;101192.69;5038371;28;20465;-76
2021/06/24 04:39:14;;;;;;;124.25;115.35;;;;;;;22.11;100.00;101194.03;5043317;28;20056;-78
2021/06/24 04:41:41;;;;;;;113.30;105.03;;;;;;;22.33;100.00;101186.47;5045151;28;20118;-78
2021/06/24 04:44:08;;;;;;;103.28;95.85;;;;;;;22.38;100.00;101188.34;5043714;28;20365;-77
2021/06/24 04:46:35;;;;;;;106.90;99.53;;;;;;;22.36;100.00;101195.94;5047134;28;20045;-78
2021/06/24 04:49:02;;;;;;;119.88;110.57;;;;;;;22.34;100.00;101204.34;5041020;28;20052;-77
2021/06/24 04:51:30;;;;;;;146.10;136.27;;;;;;;22.38;100.00;101205.41;5044527;28;20049;-78
2021/06/24 05:05:15;;;;;;;130.65;121.38;;;;;;;22.88;100.00;101191.22;5085805;27;20400;-77
2021/06/24 05:07:43;;;;;;;130.02;121.22;;;;;;;22.76;100.00;101194.22;5083486;28;20109;-77
2021/06/24 05:10:11;;;;;;;127.90;118.72;;;;;;;22.80;100.00;101204.22;5084738;28;20076;-78
2021/06/24 05:12:38;;;;;;;125.10;116.13;;;;;;;22.92;100.00;101192.28;5085452;28;20044;-78
2021/06/24 05:15:06;;;;;;;125.70;117.28;;;;;;;22.91;100.00;101194.16;5084054;28;20062;-78
2021/06/24 05:17:33;;;;;;;130.13;120.65;;;;;;;23.03;100.00;101191.19;5041545;22;20072;-90
2021/06/24 05:20:00;;;;;;;120.78;112.50;;;;;;;23.13;100.00;101187.59;5023692;28;20503;-90
2021/06/24 05:22:29;;;;;;;108.60;101.03;;;;;;;23.18;100.00;101191.09;5025668;28;20046;-91
2021/06/24 05:24:56;;;;;;;111.70;104.10;;;;;;;23.31;100.00;101189.66;5024546;28;20048;-90
2021/06/24 05:27:23;;;;;;;128.27;118.82;;;;;;;23.44;100.00;101204.50;5023204;28;20063;-90
2021/06/24 05:29:50;;;;;;;99.65;92.60;;;;;;;23.46;100.00;101191.50;5021945;28;20046;-90
2021/06/24 05:32:17;;;;;;;99.07;91.97;;;;;;;23.58;100.00;101199.28;5025237;28;20048;-90
2021/06/24 05:34:44;;;;;;;93.55;87.03;;;;;;;23.73;100.00;101191.06;5024472;28;20533;-90
2021/06/24 05:37:11;;;;;;;84.95;78.90;;;;;;;23.74;100.00;101196.19;5022233;28;20053;-89
2021/06/24 05:39:39;;;;;;;82.35;76.72;;;;;;;23.73;100.00;101189.16;5020429;28;20113;-89
2021/06/24 05:42:07;;;;;;;86.43;79.68;;;;;;;23.99;100.00;101187.06;5021817;28;20048;-89
2021/06/24 05:44:34;;;;;;;74.75;68.72;;;;;;;23.99;100.00;101181.63;5020969;28;20072;-90
2021/06/24 05:47:01;;;;;;;86.28;80.60;;;;;;;24.14;100.00;101193.41;5021900;28;20048;-89
2021/06/24 05:49:28;;;;;;;87.28;80.82;;;;;;;24.23;100.00;101197.94;5024499;28;20177;-90
2021/06/24 05:51:55;;;;;;;95.43;89.13;;;;;;;24.47;100.00;101194.50;5022755;28;20053;-90
2021/06/24 05:54:22;;;;;;;86.22;80.43;;;;;;;24.48;100.00;101187.16;5023188;28;20045;-90
2021/06/24 05:56:50;;;;;;;78.13;72.32;;;;;;;24.52;100.00;101189.00;5019305;28;20140;-90
2021/06/24 05:59:19;;;;;;;90.55;84.07;;;;;;;24.64;100.00;101189.41;5021266;28;20052;-90
2021/06/24 06:01:48;;;;;;;68.38;63.10;;;;;;;24.65;100.00;101190.22;5020401;28;20038;-90
2021/06/24 06:04:15;;;;;;;71.18;65.57;;;;;;;24.84;100.00;101182.94;5019774;28;20050;-90
2021/06/24 06:06:42;;;;;;;69.85;64.60;;;;;;;24.94;100.00;101189.34;5025130;28;20091;-90
2021/06/24 06:09:09;;;;;;;77.68;72.13;;;;;;;25.14;100.00;101189.09;5020604;28;20053;-90
2021/06/24 06:11:36;;;;;;;82.78;77.10;;;;;;;25.31;100.00;101186.69;5022140;28;20038;-90
2021/06/24 06:14:04;;;;;;;64.22;59.45;;;;;;;25.33;100.00;101187.22;5022519;28;20128;-89
2021/06/24 06:16:31;;;;;;;65.10;60.22;;;;;;;25.46;100.00;101188.38;5008451;28;20054;-90
2021/06/24 06:18:58;;;;;;;72.68;67.47;;;;;;;25.75;100.00;101185.50;5013978;28;20056;-91
2021/06/24 06:21:28;;;;;;;58.25;53.67;;;;;;;25.86;100.00;101183.44;5007053;28;20449;-91
2021/06/24 06:23:55;;;;;;;37.83;35.28;;;;;;;25.89;100.00;101179.31;5008622;28;20474;-91
2021/06/24 06:26:24;;;;;;;38.75;35.88;;;;;;;26.09;100.00;101178.19;5010288;28;20048;-91
2021/06/24 06:28:51;;;;;;;38.95;36.00;;;;;;;26.33;100.00;101172.56;5008470;28;20057;-90
2021/06/24 06:31:22;;;;;;;41.70;38.92;;;;;;;26.34;100.00;101174.97;5008933;28;20466;-90
2021/06/24 06:33:49;;;;;;;39.83;37.22;;;;;;;26.42;100.00;101173.50;5009466;28;20286;-90
2021/06/24 06:36:16;;;;;;;41.65;38.67;;;;;;;26.46;100.00;101172.56;5008896;28;20050;-89
2021/06/24 06:38:43;;;;;;;37.70;35.50;;;;;;;26.53;100.00;101168.66;5009318;28;20056;-89
2021/06/24 06:41:10;;;;;;;36.70;34.20;;;;;;;26.60;100.00;101169.09;5006929;28;20631;-90
2021/06/24 06:43:37;;;;;;;32.92;30.73;;;;;;;26.59;100.00;101162.81;5009878;28;20045;-89
2021/06/24 06:46:04;;;;;;;33.63;31.42;;;;;;;26.57;100.00;101169.69;5009694;28;20136;-89
2021/06/24 06:48:34;;;;;;;42.92;40.10;;;;;;;26.67;100.00;101170.28;5008929;28;20045;-90
2021/06/24 06:51:01;;;;;;;41.80;38.55;;;;;;;26.78;100.00;101172.78;5006827;28;20046;-90
2021/06/24 06:53:28;;;;;;;38.80;36.00;;;;;;;27.02;100.00;101178.84;5009128;28;20053;-90
2021/06/24 06:55:55;;;;;;;35.08;32.58;;;;;;;27.16;100.00;101178.81;5007811;28;20052;-90
2021/06/24 06:58:22;;;;;;;35.13;32.20;;;;;;;26.94;100.00;101176.81;5008009;28;20053;-89
2021/06/24 07:00:49;;;;;;;36.50;33.60;;;;;;;27.02;100.00;101184.28;5007404;28;20054;-90
2021/06/24 07:03:16;;;;;;;35.08;32.55;;;;;;;27.29;100.00;101180.69;5008444;28;20446;-90
2021/06/24 07:05:44;;;;;;;34.90;32.03;;;;;;;27.06;100.00;101184.47;5007510;28;20046;-89
2021/06/24 07:08:11;;;;;;;33.92;31.25;;;;;;;27.25;100.00;101184.34;5009573;28;20065;-90
2021/06/24 07:10:39;;;;;;;32.67;30.23;;;;;;;27.30;100.00;101195.97;5010544;28;20124;-91
2021/06/24 07:13:05;;;;;;;32.58;30.10;;;;;;;27.31;100.00;101194.03;5007589;28;20046;-90
2021/06/24 07:15:32;;;;;;;36.35;33.60;;;;;;;27.00;100.00;101194.69;5007998;28;20495;-90
2021/06/24 07:17:59;;;;;;;41.35;38.35;;;;;;;27.50;100.00;101189.22;5006642;28;20042;-89
2021/06/24 07:20:26;;;;;;;35.65;33.28;;;;;;;27.51;100.00;101207.22;5007373;28;20041;-90
2021/06/24 07:22:54;;;;;;;35.47;33.05;;;;;;;27.59;100.00;101195.53;5011252;28;20064;-89
2021/06/24 07:25:22;;;;;;;32.35;30.25;;;;;;;27.64;100.00;101189.19;5007132;28;20042;-88
2021/06/24 07:27:51;;;;;;;33.58;31.27;;;;;;;27.68;100.00;101190.16;5004919;28;20050;-90
2021/06/24 07:30:19;;;;;;;35.70;33.20;;;;;;;27.28;100.00;101181.81;5009407;28;20049;-90
2021/06/24 07:32:46;;;;;;;38.17;35.72;;;;;;;27.50;100.00;101191.94;5004830;28;20048;-89
2021/06/24 07:35:13;;;;;;;34.22;31.55;;;;;;;27.97;100.00;101189.75;5006251;28;20060;-90
2021/06/24 07:37:42;;;;;;;33.70;31.08;;;;;;;28.06;100.00;101184.34;5010405;28;20048;-90
2021/06/24 07:40:12;;;;;;;31.55;29.48;;;;;;;28.03;100.00;101183.03;5006902;28;20061;-90
2021/06/24 07:42:39;;;;;;;35.13;32.53;;;;;;;27.94;100.00;101197.75;5005389;28;20416;-89
2021/06/24 07:45:07;;;;;;;31.38;29.30;;;;;;;28.20;100.00;101179.63;5006344;28;20048;-89
2021/06/24 07:47:34;;;;;;;32.92;30.75;;;;;;;27.89;100.00;101178.78;5004485;28;20050;-90
2021/06/24 07:50:01;;;;;;;30.95;29.02;;;;;;;28.32;100.00;101165.34;5006726;28;20042;-89
2021/06/24 07:52:28;;;;;;;30.40;28.30;;;;;;;27.83;100.00;101167.97;5008665;28;20491;-90
2021/06/24 07:54:55;;;;;;;33.28;31.00;;;;;;;28.44;100.00;101153.84;4998293;28;20621;-90
2021/06/24 07:57:23;;;;;;;34.20;31.80;;;;;;;28.20;100.00;101151.47;5003802;28;20057;-89
2021/06/24 07:59:50;;;;;;;34.35;31.55;;;;;;;28.46;100.00;101148.91;5003063;28;20048;-91
2021/06/24 08:02:17;;;;;;;31.75;29.50;;;;;;;28.99;100.00;101156.91;5005691;28;20042;-90
2021/06/24 08:04:44;;;;;;;37.30;34.50;;;;;;;28.79;100.00;101160.25;5000914;28;20042;-90
2021/06/24 08:07:12;;;;;;;31.85;29.55;;;;;;;28.91;100.00;101145.94;4995667;28;20488;-90
2021/06/24 08:09:39;;;;;;;32.95;30.20;;;;;;;29.13;100.00;101145.84;4992295;28;20053;-91
2021/06/24 08:12:07;;;;;;;31.15;28.75;;;;;;;29.01;100.00;101153.84;4992636;28;20054;-90
2021/06/24 08:14:35;;;;;;;30.63;28.33;;;;;;;29.11;100.00;101159.03;4999990;28;20050;-89
2021/06/24 08:17:02;;;;;;;32.97;30.60;;;;;;;29.09;100.00;101152.28;4998695;28;20054;-90
2021/06/24 08:19:29;;;;;;;36.17;33.13;;;;;;;29.42;100.00;101152.59;4997761;28;20056;-90
2021/06/24 08:21:59;;;;;;;32.80;30.08;;;;;;;29.48;100.00;101154.03;4997012;28;20422;-91
2021/06/24 08:24:27;;;;;;;36.85;33.95;;;;;;;28.85;100.00;101148.03;4990775;28;20503;-89
2021/06/24 08:26:54;;;;;;;33.17;30.75;;;;;;;29.18;100.00;101142.94;4992764;28;20038;-90
2021/06/24 08:29:21;;;;;;;36.83;34.03;;;;;;;29.00;100.00;101149.50;4994160;28;20056;-90
2021/06/24 08:31:49;;;;;;;38.33;35.75;;;;;;;28.94;100.00;101151.56;4996176;28;20054;-88
2021/06/24 08:34:16;;;;;;;36.50;34.05;;;;;;;27.67;100.00;101155.00;4999035;28;20049;-91
2021/06/24 08:36:43;;;;;;;40.45;37.40;;;;;;;28.41;100.00;101146.28;4998332;28;20050;-90
2021/06/24 08:39:10;;;;;;;48.88;45.22;;;;;;;29.33;100.00;101140.88;5004479;28;20064;-87
2021/06/24 08:41:38;;;;;;;36.13;33.08;;;;;;;29.77;100.00;101139.69;4999089;28;20048;-88
2021/06/24 08:44:07;;;;;;;41.42;38.33;;;;;;;29.51;100.00;101136.97;4995717;28;20136;-89
2021/06/24 08:46:35;;;;;;;40.88;37.60;;;;;;;28.59;100.00;101134.28;5002340;28;20049;-89
2021/06/24 08:49:04;;;;;;;54.30;50.42;;;;;;;29.43;100.00;101133.13;5002586;28;20116;-89
2021/06/24 08:51:31;;;;;;;39.03;35.53;;;;;;;30.12;100.00;101140.41;4999707;28;20595;-88
2021/06/24 08:54:00;;;;;;;43.17;39.70;;;;;;;29.47;100.00;101138.75;5015904;28;20047;-88
2021/06/24 08:56:27;;;;;;;50.88;46.83;;;;;;;30.06;100.00;101127.22;4993045;28;20069;-89
2021/06/24 08:58:56;;;;;;;52.15;48.28;;;;;;;29.71;100.00;101134.72;4999698;28;20517;-88
2021/06/24 09:01:49;;;;;;;35.75;33.08;;;;;;;28.37;100.00;101132.44;5009709;28;20052;-89
2021/06/24 09:04:19;;;;;;;45.40;41.70;;;;;;;30.16;100.00;101140.53;5002716;28;20060;-89
2021/06/24 09:06:46;;;;;;;38.00;34.95;;;;;;;29.38;100.00;101144.25;5004576;28;20562;-89
2021/06/24 09:09:25;;;;;;;41.95;38.58;;;;;;;29.44;100.00;101142.94;5000296;28;20056;-89
2021/06/24 09:12:02;;;;;;;43.42;40.42;;;;;;;28.28;100.00;101139.78;5007224;28;20049;-88
2021/06/24 09:14:38;;;;;;;45.40;42.28;;;;;;;29.00;100.00;101131.16;5002785;28;20081;-89
2021/06/24 09:17:06;;;;;;;40.55;37.05;;;;;;;29.62;100.00;101137.47;5003959;28;20561;-89
2021/06/24 09:19:34;;;;;;;50.30;46.53;;;;;;;28.57;100.00;101125.63;5012281;28;20093;-92
2021/06/24 09:22:03;;;;;;;54.63;50.30;;;;;;;28.65;100.00;101132.22;5005582;28;20168;-89
2021/06/24 09:24:33;;;;;;;55.50;51.03;;;;;;;28.69;100.00;101131.28;5001438;28;20525;-89
2021/06/24 09:27:01;;;;;;;39.63;36.38;;;;;;;27.97;100.00;101126.97;4994972;28;20146;-89
2021/06/24 09:29:28;;;;;;;46.38;42.45;;;;;;;28.68;100.00;101132.38;4998333;28;20053;-89
2021/06/24 09:31:57;;;;;;;35.90;32.45;;;;;;;28.47;100.00;101129.47;4990883;28;20134;-90
2021/06/24 09:34:25;;;;;;;36.67;33.10;;;;;;;27.06;100.00;101133.50;4990685;28;20575;-89
2021/06/24 09:36:59;;;;;;;37.30;33.85;;;;;;;27.63;100.00;101144.72;4990885;28;20057;-87
2021/06/24 09:39:32;;;;;;;51.95;47.72;;;;;;;28.05;100.00;101136.34;4992688;28;20047;-89
2021/06/24 09:42:05;;;;;;;41.78;37.65;;;;;;;28.31;100.00;101131.78;4992722;28;20050;-88
2021/06/24 09:44:32;;;;;;;40.97;37.45;;;;;;;27.60;100.00;101122.72;4997102;28;20046;-87
2021/06/24 09:47:02;;;;;;;42.40;38.90;;;;;;;29.79;100.00;101118.28;4989721;28;20582;-88
2021/06/24 09:49:34;;;;;;;35.53;31.95;;;;;;;27.45;100.00;101129.34;4993484;28;20424;-89
2021/06/24 09:52:04;;;;;;;33.80;30.67;;;;;;;29.44;100.00;101121.06;5002652;28;20500;-90
2021/06/24 09:54:38;;;;;;;37.35;33.90;;;;;;;29.30;100.00;101128.63;4994170;28;20104;-89
2021/06/24 09:57:05;;;;;;;33.10;30.55;;;;;;;28.17;100.00;101127.53;4994653;28;20054;-89
2021/06/24 09:59:35;;;;;;;34.90;32.05;;;;;;;27.93;100.00;101116.97;5005222;28;20045;-88
2021/06/24 10:02:10;;;;;;;52.63;48.30;;;;;;;29.04;100.00;101119.63;4998151;28;20054;-89
2021/06/24 10:04:40;;;;;;;44.10;40.60;;;;;;;28.90;100.00;101133.41;5001974;28;21650;-90
2021/06/24 10:07:12;;;;;;;36.50;33.58;;;;;;;30.04;100.00;101124.00;5004487;28;20052;-89
2021/06/24 10:09:39;;;;;;;;;;;;;;;30.60;100.00;101119.25;5002619;28;20050;-90
2021/06/24 10:12:08;;;;;;;34.97;32.17;;;;;;;29.17;100.00;101113.19;5000478;28;19921;-89
2021/06/24 10:14:35;;;;;;;37.78;34.70;;;;;;;30.07;100.00;101115.91;5004676;28;20054;-89
2021/06/24 10:17:04;;;;;;;41.85;38.28;;;;;;;29.86;100.00;101107.63;5006035;28;20091;-89
2021/06/24 10:19:33;;;;;;;34.58;31.88;;;;;;;29.04;100.00;101109.47;5006736;28;20042;-89
2021/06/24 10:22:03;;;;;;;35.10;32.10;;;;;;;30.60;100.00;101105.53;5007966;28;20052;-90
2021/06/24 10:24:35;;;;;;;43.35;39.65;;;;;;;30.71;100.00;101109.50;5001727;28;20056;-90
2021/06/24 10:27:07;;;;;;;37.58;29.85;;;;;;;29.51;100.00;101106.88;5003712;28;20053;-89
2021/06/24 10:29:43;;;;;;;43.78;40.15;;;;;;;30.40;100.00;101098.09;5005624;28;20507;-89
2021/06/24 10:32:26;;;;;;;41.60;38.25;;;;;;;29.77;100.00;101101.38;4998938;28;20061;-89
2021/06/24 10:34:53;;;;;;;;;;;;;;;29.09;100.00;101103.84;5000014;28;20046;-89
2021/06/24 10:37:22;;;;;;;48.13;43.60;;;;;;;30.32;100.00;101106.03;4999029;28;19922;-89
2021/06/24 10:39:52;;;;;;;39.10;35.88;;;;;;;29.98;100.00;101106.13;4994843;28;20047;-89
2021/06/24 10:42:20;;;;;;;36.97;34.30;;;;;;;28.59;100.00;101104.25;5003860;28;20056;-89
2021/06/24 10:45:06;;;;;;;41.90;38.10;;;;;;;28.20;100.00;101111.34;5002737;28;20060;-90
2021/06/24 10:47:39;;;;;;;54.67;49.75;;;;;;;29.28;100.00;101111.72;5000330;28;20052;-90
2021/06/24 10:50:43;;;;;;;40.03;37.03;;;;;;;30.91;100.00;101109.88;4996769;28;20056;-89
2021/06/24 10:53:53;;;;;;;53.80;49.58;;;;;;;31.77;100.00;101107.47;4993952;28;20128;-88
2021/06/24 10:56:45;;;;;;;43.70;40.10;;;;;;;31.11;100.00;101103.59;5000248;28;20042;-88
2021/06/24 10:59:39;;;;;;;36.47;32.97;;;;;;;28.83;100.00;101105.75;4995362;28;20058;-89
2021/06/24 11:02:15;;;;;;;38.88;35.55;;;;;;;30.61;100.00;101096.19;4995621;28;20824;-89
2021/06/24 11:04:44;;;;;;;37.05;34.05;;;;;;;31.99;100.00;101101.59;5000825;28;20166;-89
2021/06/24 11:07:23;;;;;;;32.42;29.75;;;;;;;30.16;100.00;101106.88;5002769;28;20050;-89
2021/06/24 11:10:22;;;;;;;40.00;36.15;;;;;;;31.30;100.00;101097.59;4996774;28;20077;-88
2021/06/24 11:12:52;;;;;;;31.55;29.08;;;;;;;31.84;100.00;101096.75;4991963;28;20421;-91